Time;durP1;ratioP1;P1;durP2;ratioP2;P2;SDS_P1;SDS_P2;PMS_P1;PMS_P2;Temp;Humidity;BMP_temperature;BMP_pressure;BME280_temperature;BME280_humidity;BME280_pressure;Samples;Min_cycle;Max_cycle;Signal;HPM_P1;HPM_P2
2022/03/09 00:00:30;;;;;;;;;;;23.30;40.00;;;;;;1553443;76;1915;-69
2022/03/09 00:02:32;;;;;;;;;;;23.30;40.00;;;;;;1549262;76;779;-68
2022/03/09 00:04:33;;;;;;;;;;;23.30;40.00;;;;;;1553482;76;734;-68
2022/03/09 00:06:35;;;;;;;;;;;23.40;40.00;;;;;;1553594;76;799;-67
2022/03/09 00:08:37;;;;;;;;;;;23.40;40.10;;;;;;1553580;76;1141;-68
2022/03/09 00:10:39;;;;;;;;;;;23.30;40.10;;;;;;1553363;76;772;-67
2022/03/09 00:12:41;;;;;;;;;;;23.40;40.10;;;;;;1543691;76;716;-68
2022/03/09 00:14:43;;;;;;;;;;;23.30;40.10;;;;;;1541458;77;574;-69
2022/03/09 00:16:45;;;;;;;;;;;23.30;40.10;;;;;;1541348;77;659;-69
2022/03/09 00:18:47;;;;;;;;;;;23.40;40.10;;;;;;1541340;77;1142;-68
2022/03/09 00:20:49;;;;;;;;;;;23.40;40.20;;;;;;1548993;76;1924;-70
2022/03/09 00:22:50;;;;;;;;;;;23.30;40.20;;;;;;1553421;76;812;-68
2022/03/09 00:24:52;;;;;;;;;;;23.30;40.20;;;;;;1552435;76;720;-70
2022/03/09 00:26:54;;;;;;;;;;;23.30;40.20;;;;;;1553297;76;776;-69
2022/03/09 00:28:56;;;;;;;;;;;23.30;40.20;;;;;;1553418;76;1192;-68
2022/03/09 00:30:58;;;;;;;;;;;23.40;40.20;;;;;;1553531;76;722;-69
2022/03/09 00:33:00;;;;;;;;;;;23.30;40.20;;;;;;1544805;76;746;-66
2022/03/09 00:35:02;;;;;;;;;;;23.30;40.20;;;;;;1541779;76;784;-69
2022/03/09 00:37:03;;;;;;;;;;;23.40;40.20;;;;;;1541421;77;719;-67
2022/03/09 00:39:05;;;;;;;;;;;23.40;40.40;;;;;;1541441;77;1193;-68
2022/03/09 00:41:07;;;;;;;;;;;23.40;40.30;;;;;;1541384;77;1931;-67
2022/03/09 00:43:09;;;;;;;;;;;23.30;40.40;;;;;;1545706;76;702;-67
2022/03/09 00:45:11;;;;;;;;;;;23.30;40.40;;;;;;1549862;76;759;-69
2022/03/09 00:47:13;;;;;;;;;;;23.40;40.40;;;;;;1541402;77;655;-68
2022/03/09 00:49:15;;;;;;;;;;;23.40;40.40;;;;;;1541357;77;1152;-69
2022/03/09 00:51:17;;;;;;;;;;;23.30;40.40;;;;;;1541318;77;768;-70
2022/03/09 00:53:19;;;;;;;;;;;23.40;40.40;;;;;;1541506;76;745;-68
2022/03/09 00:55:21;;;;;;;;;;;23.40;40.50;;;;;;1550841;76;683;-69
2022/03/09 00:57:23;;;;;;;;;;;23.40;40.50;;;;;;1553390;76;794;-68
2022/03/09 00:59:24;;;;;;;;;;;23.30;40.50;;;;;;1553379;76;1114;-69
2022/03/09 01:01:26;;;;;;;;;;;23.30;40.50;;;;;;1549603;76;1925;-67
2022/03/09 01:03:28;;;;;;;;;;;23.30;40.50;;;;;;1537371;74;2163;-68
2022/03/09 01:05:30;;;;;;;;;;;23.30;40.50;;;;;;1539538;76;680;-67
2022/03/09 01:07:32;;;;;;;;;;;23.40;40.50;;;;;;1539709;76;732;-69
2022/03/09 01:09:34;;;;;;;;;;;23.40;40.50;;;;;;1539806;77;728;-67
2022/03/09 01:11:37;;;;;;;;;;;23.30;40.50;;;;;;1540135;76;764;-68
2022/03/09 01:13:39;;;;;;;;;;;23.30;40.50;;;;;;1538419;77;1191;-68
2022/03/09 01:15:40;;;;;;;;;;;23.40;40.60;;;;;;1536119;77;801;-69
2022/03/09 01:17:42;;;;;;;;;;;23.40;40.60;;;;;;1536311;77;738;-67
2022/03/09 01:19:44;;;;;;;;;;;23.40;40.70;;;;;;1525815;77;811;-67
2022/03/09 01:21:46;;;;;;;;;;;23.30;40.70;;;;;;1509425;79;1945;-67
2022/03/09 01:23:48;;;;;;;;;;;23.30;40.60;;;;;;1510028;77;1255;-68
2022/03/09 01:25:51;;;;;;;;;;;23.30;40.70;;;;;;1536059;77;731;-67
2022/03/09 01:27:53;;;;;;;;;;;23.30;40.60;;;;;;1536170;77;688;-70
2022/03/09 01:29:55;;;;;;;;;;;23.40;40.70;;;;;;1536178;77;711;-67
2022/03/09 01:31:57;;;;;;;;;;;23.30;40.70;;;;;;1536073;77;675;-68
2022/03/09 01:33:59;;;;;;;;;;;23.40;40.70;;;;;;1525765;77;1158;-67
2022/03/09 01:36:01;;;;;;;;;;;23.30;40.70;;;;;;1510614;79;736;-68
2022/03/09 01:38:03;;;;;;;;;;;23.30;40.70;;;;;;1509758;77;736;-67
2022/03/09 01:40:05;;;;;;;;;;;23.30;40.70;;;;;;1509455;79;1923;-68
2022/03/09 01:42:07;;;;;;;;;;;23.30;40.70;;;;;;1509379;79;580;-67
2022/03/09 01:44:09;;;;;;;;;;;23.30;40.70;;;;;;1509840;79;1105;-67
2022/03/09 01:46:11;;;;;;;;;;;23.30;40.70;;;;;;1510326;79;632;-68
2022/03/09 01:48:13;;;;;;;;;;;23.30;40.70;;;;;;1510520;79;695;-67
2022/03/09 01:50:15;;;;;;;;;;;23.40;40.70;;;;;;1510627;78;611;-68
2022/03/09 01:52:17;;;;;;;;;;;23.30;40.80;;;;;;1510101;79;708;-70
2022/03/09 01:54:19;;;;;;;;;;;23.30;40.70;;;;;;1510153;79;1108;-67
2022/03/09 01:56:21;;;;;;;;;;;23.30;40.80;;;;;;1510657;79;732;-67
2022/03/09 01:58:22;;;;;;;;;;;23.30;40.80;;;;;;1510648;79;787;-67
2022/03/09 02:00:24;;;;;;;;;;;23.30;40.70;;;;;;1510625;79;1941;-67
2022/03/09 02:02:26;;;;;;;;;;;23.30;40.80;;;;;;1510526;77;821;-67
2022/03/09 02:04:28;;;;;;;;;;;23.30;40.80;;;;;;1511121;77;1132;-68
2022/03/09 02:06:31;;;;;;;;;;;23.30;40.90;;;;;;1510589;79;654;-67
2022/03/09 02:10:52;;;;;;;;;;;23.30;40.90;;;;;;1510113;77;1664;-69
2022/03/09 02:12:54;;;;;;;;;;;23.30;40.90;;;;;;1535272;77;1169;-71
2022/03/09 02:14:56;;;;;;;;;;;23.30;40.80;;;;;;1536274;77;734;-67
2022/03/09 02:16:59;;;;;;;;;;;23.30;40.90;;;;;;1536180;77;788;-69
2022/03/09 02:19:02;;;;;;;;;;;23.40;40.90;;;;;;1536064;77;702;-68
2022/03/09 02:21:04;;;;;;;;;;;23.30;41.00;;;;;;1531788;77;1910;-67
2022/03/09 02:23:05;;;;;;;;;;;23.40;41.00;;;;;;1510531;79;1135;-67
2022/03/09 02:25:08;;;;;;;;;;;23.40;41.00;;;;;;1527644;77;679;-68
2022/03/09 02:27:10;;;;;;;;;;;23.30;40.90;;;;;;1536124;77;656;-68
2022/03/09 02:29:13;;;;;;;;;;;23.30;40.90;;;;;;1536056;77;714;-68
2022/03/09 02:31:15;;;;;;;;;;;23.40;41.00;;;;;;1536089;77;687;-69
2022/03/09 02:33:17;;;;;;;;;;;23.30;41.00;;;;;;1521999;77;1143;-69
2022/03/09 02:35:19;;;;;;;;;;;23.30;41.00;;;;;;1510460;79;767;-67
2022/03/09 02:37:21;;;;;;;;;;;23.30;41.00;;;;;;1510615;78;728;-68
2022/03/09 02:39:23;;;;;;;;;;;23.30;41.00;;;;;;1510550;77;703;-68
2022/03/09 02:41:28;;;;;;;;;;;23.30;41.00;;;;;;1510285;77;1927;-67
2022/03/09 02:43:29;;;;;;;;;;;23.30;41.00;;;;;;1505337;77;1667;-68
2022/03/09 02:45:30;;;;;;;;;;;23.30;41.00;;;;;;1505257;77;750;-67
2022/03/09 02:47:32;;;;;;;;;;;23.30;41.00;;;;;;1505463;79;746;-69
2022/03/09 02:49:34;;;;;;;;;;;23.30;41.10;;;;;;1517061;77;713;-69
2022/03/09 02:51:36;;;;;;;;;;;23.30;41.10;;;;;;1509346;79;756;-67
2022/03/09 02:53:38;;;;;;;;;;;23.30;41.00;;;;;;1509265;79;1126;-68
2022/03/09 02:55:40;;;;;;;;;;;23.30;41.10;;;;;;1510363;79;749;-67
2022/03/09 02:57:42;;;;;;;;;;;23.30;41.10;;;;;;1509983;79;724;-68
2022/03/09 02:59:43;;;;;;;;;;;23.30;41.00;;;;;;1509380;77;756;-68
2022/03/09 03:01:45;;;;;;;;;;;23.30;41.10;;;;;;1509343;78;1962;-68
2022/03/09 03:03:47;;;;;;;;;;;23.30;41.00;;;;;;1509399;79;1136;-68
2022/03/09 03:05:49;;;;;;;;;;;23.30;41.00;;;;;;1509464;79;832;-69
2022/03/09 03:07:51;;;;;;;;;;;23.30;41.00;;;;;;1509962;79;737;-67
2022/03/09 03:09:53;;;;;;;;;;;23.30;41.00;;;;;;1510564;79;734;-68
2022/03/09 03:11:55;;;;;;;;;;;23.30;41.00;;;;;;1509718;77;770;-68
2022/03/09 03:13:57;;;;;;;;;;;23.30;41.10;;;;;;1509043;79;1111;-67
2022/03/09 03:15:58;;;;;;;;;;;23.20;41.00;;;;;;1510018;77;763;-70
2022/03/09 03:18:01;;;;;;;;;;;23.20;41.00;;;;;;1509413;79;722;-69
2022/03/09 03:20:03;;;;;;;;;;;23.30;41.10;;;;;;1509410;79;815;-68
2022/03/09 03:22:05;;;;;;;;;;;23.30;41.20;;;;;;1509345;79;1911;-68
2022/03/09 03:24:07;;;;;;;;;;;23.30;41.20;;;;;;1514743;77;1132;-68
2022/03/09 03:26:09;;;;;;;;;;;23.30;41.20;;;;;;1536097;77;628;-70
2022/03/09 03:28:11;;;;;;;;;;;23.30;41.10;;;;;;1536161;77;722;-68
2022/03/09 03:30:13;;;;;;;;;;;23.30;41.20;;;;;;1536163;77;610;-67
2022/03/09 03:32:15;;;;;;;;;;;23.30;41.20;;;;;;1531238;77;719;-68
2022/03/09 03:34:17;;;;;;;;;;;23.30;41.20;;;;;;1510428;79;1113;-70
2022/03/09 03:36:19;;;;;;;;;;;23.30;41.20;;;;;;1510668;79;797;-68
2022/03/09 03:38:21;;;;;;;;;;;23.30;41.20;;;;;;1510769;79;724;-68
2022/03/09 03:40:23;;;;;;;;;;;23.40;41.30;;;;;;1510556;79;720;-67
2022/03/09 03:42:24;;;;;;;;;;;23.40;41.10;;;;;;1510035;79;1929;-68
2022/03/09 03:44:27;;;;;;;;;;;23.40;41.10;;;;;;1510497;79;1128;-70
2022/03/09 03:46:29;;;;;;;;;;;23.50;41.20;;;;;;1527131;77;671;-67
2022/03/09 03:48:31;;;;;;;;;;;23.50;41.10;;;;;;1536099;77;768;-67
2022/03/09 03:50:33;;;;;;;;;;;23.60;41.10;;;;;;1516595;77;779;-67
2022/03/09 03:52:35;;;;;;;;;;;23.50;41.00;;;;;;1509350;79;1120;-68
2022/03/09 03:54:37;;;;;;;;;;;23.60;41.00;;;;;;1509562;79;794;-68
2022/03/09 03:56:38;;;;;;;;;;;23.60;41.00;;;;;;1509293;77;728;-69
2022/03/09 03:58:40;;;;;;;;;;;23.60;41.00;;;;;;1503372;79;742;-67
2022/03/09 04:00:42;;;;;;;;;;;23.60;40.90;;;;;;1493994;79;769;-67
2022/03/09 04:02:44;;;;;;;;;;;23.70;41.00;;;;;;1486231;80;1902;-67
2022/03/09 04:04:46;;;;;;;;;;;23.70;41.00;;;;;;1507768;77;755;-66
2022/03/09 04:06:48;;;;;;;;;;;23.70;40.90;;;;;;1510033;79;658;-67
2022/03/09 04:08:50;;;;;;;;;;;23.70;40.80;;;;;;1509487;79;777;-70
2022/03/09 04:10:52;;;;;;;;;;;23.70;40.90;;;;;;1510015;77;720;-68
2022/03/09 04:12:53;;;;;;;;;;;23.80;40.90;;;;;;1516310;77;1131;-69
2022/03/09 04:14:55;;;;;;;;;;;23.80;40.80;;;;;;1536291;77;793;-69
2022/03/09 04:16:57;;;;;;;;;;;23.80;40.80;;;;;;1536103;77;654;-68
2022/03/09 04:18:59;;;;;;;;;;;23.80;40.70;;;;;;1536145;77;795;-68
2022/03/09 04:21:01;;;;;;;;;;;23.90;40.70;;;;;;1534409;77;1932;-70
2022/03/09 04:23:08;;;;;;;;;;;23.90;40.70;;;;;;1535988;77;1116;-67
2022/03/09 04:25:07;;;;;;;;;;;23.90;40.70;;;;;;1533765;77;1476;-68
2022/03/09 04:27:09;;;;;;;;;;;23.80;40.50;;;;;;1536193;77;742;-68
2022/03/09 04:29:11;;;;;;;;;;;24.00;40.60;;;;;;1536003;77;730;-68
2022/03/09 04:31:13;;;;;;;;;;;24.00;40.70;;;;;;1486228;80;830;-67
2022/03/09 04:33:15;;;;;;;;;;;24.00;40.60;;;;;;1496243;79;1148;-69
2022/03/09 04:35:17;;;;;;;;;;;23.90;40.60;;;;;;1510756;79;741;-67
2022/03/09 04:37:19;;;;;;;;;;;24.00;40.60;;;;;;1510709;79;847;-67
2022/03/09 04:39:21;;;;;;;;;;;24.00;40.60;;;;;;1510549;79;744;-68
2022/03/09 04:41:23;;;;;;;;;;;24.00;40.70;;;;;;1510693;79;1982;-67
2022/03/09 04:43:25;;;;;;;;;;;23.90;40.70;;;;;;1532672;77;1156;-67
2022/03/09 04:45:27;;;;;;;;;;;24.00;40.70;;;;;;1536138;77;632;-68
2022/03/09 04:47:29;;;;;;;;;;;23.90;40.70;;;;;;1536365;77;721;-68
2022/03/09 04:49:30;;;;;;;;;;;24.00;40.80;;;;;;1529680;77;749;-69
2022/03/09 04:51:32;;;;;;;;;;;23.90;41.00;;;;;;1510774;79;786;-69
2022/03/09 04:53:34;;;;;;;;;;;23.80;41.00;;;;;;1510621;79;1119;-67
2022/03/09 04:55:36;;;;;;;;;;;23.90;41.10;;;;;;1510064;79;743;-67
2022/03/09 04:57:38;;;;;;;;;;;23.90;41.10;;;;;;1510604;79;787;-68
2022/03/09 04:59:40;;;;;;;;;;;24.00;41.10;;;;;;1509921;78;710;-67
2022/03/09 05:01:42;;;;;;;;;;;24.00;41.00;;;;;;1509577;79;1929;-69
2022/03/09 05:03:43;;;;;;;;;;;24.00;41.00;;;;;;1509754;79;1128;-68
2022/03/09 05:05:45;;;;;;;;;;;23.90;41.00;;;;;;1510500;79;775;-69
2022/03/09 05:07:47;;;;;;;;;;;23.90;41.20;;;;;;1510755;79;721;-68
2022/03/09 05:09:49;;;;;;;;;;;24.00;41.00;;;;;;1510782;79;784;-67
2022/03/09 05:11:51;;;;;;;;;;;24.00;40.90;;;;;;1509236;77;774;-66
2022/03/09 05:13:53;;;;;;;;;;;24.00;40.80;;;;;;1486270;80;1173;-68
2022/03/09 05:15:55;;;;;;;;;;;24.00;40.80;;;;;;1486121;80;716;-67
2022/03/09 05:17:57;;;;;;;;;;;24.00;40.80;;;;;;1486194;80;704;-68
2022/03/09 05:19:59;;;;;;;;;;;24.00;40.70;;;;;;1490567;79;768;-68
2022/03/09 05:22:01;;;;;;;;;;;24.00;40.70;;;;;;1510507;79;1929;-68
2022/03/09 05:24:03;;;;;;;;;;;24.10;41.00;;;;;;1510194;79;1080;-67
2022/03/09 05:26:05;;;;;;;;;;;24.00;40.90;;;;;;1510568;79;699;-68
2022/03/09 05:28:06;;;;;;;;;;;24.00;40.80;;;;;;1510495;79;658;-67
2022/03/09 05:30:11;;;;;;;;;;;24.00;40.90;;;;;;1510664;79;739;-68
2022/03/09 05:32:13;;;;;;;;;;;24.00;40.80;;;;;;1510242;79;786;-67
2022/03/09 05:34:15;;;;;;;;;;;24.10;41.00;;;;;;1509395;79;1123;-68
2022/03/09 05:36:16;;;;;;;;;;;24.00;40.90;;;;;;1510598;79;841;-67
2022/03/09 05:38:18;;;;;;;;;;;24.00;41.00;;;;;;1510564;79;778;-68
2022/03/09 05:40:20;;;;;;;;;;;24.00;40.90;;;;;;1510724;79;744;-67
2022/03/09 05:42:22;;;;;;;;;;;24.00;40.90;;;;;;1510460;78;1945;-70
2022/03/09 05:44:24;;;;;;;;;;;24.10;41.00;;;;;;1510367;79;1132;-68
2022/03/09 05:46:26;;;;;;;;;;;24.00;40.90;;;;;;1510731;79;727;-68
2022/03/09 05:48:28;;;;;;;;;;;24.00;41.00;;;;;;1510456;79;787;-68
2022/03/09 05:50:30;;;;;;;;;;;24.00;41.00;;;;;;1509834;77;810;-68
2022/03/09 05:52:31;;;;;;;;;;;24.00;41.00;;;;;;1509525;78;724;-67
2022/03/09 05:54:33;;;;;;;;;;;23.90;41.10;;;;;;1509605;79;790;-68
2022/03/09 05:56:36;;;;;;;;;;;24.00;41.20;;;;;;1510068;78;786;-67
2022/03/09 05:58:37;;;;;;;;;;;24.00;41.20;;;;;;1510174;78;1076;-70
2022/03/09 06:00:39;;;;;;;;;;;24.00;41.30;;;;;;1509862;79;822;-75
2022/03/09 06:02:41;;;;;;;;;;;24.00;41.30;;;;;;1509710;79;1947;-68
2022/03/09 06:04:45;;;;;;;;;;;24.00;41.00;;;;;;1510179;79;758;-68
2022/03/09 06:06:47;;;;;;;;;;;24.20;40.80;;;;;;1509962;79;767;-68
2022/03/09 06:08:48;;;;;;;;;;;24.20;40.50;;;;;;1509564;79;741;-68
2022/03/09 06:10:51;;;;;;;;;;;24.20;40.40;;;;;;1510346;77;713;-71
2022/03/09 06:12:53;;;;;;;;;;;24.20;40.20;;;;;;1510114;79;1218;-66
2022/03/09 06:14:55;;;;;;;;;;;24.30;40.20;;;;;;1509929;79;685;-73
2022/03/09 06:16:57;;;;;;;;;;;24.30;40.10;;;;;;1509331;79;717;-67
2022/03/09 06:18:59;;;;;;;;;;;24.30;40.00;;;;;;1509808;79;761;-68
2022/03/09 06:21:01;;;;;;;;;;;24.30;40.00;;;;;;1509465;79;800;-67
2022/03/09 06:23:02;;;;;;;;;;;24.20;39.70;;;;;;1509988;79;1931;-67
2022/03/09 06:25:05;;;;;;;;;;;24.30;39.70;;;;;;1509625;79;795;-67
2022/03/09 06:27:07;;;;;;;;;;;24.20;39.60;;;;;;1509367;78;801;-67
2022/03/09 06:29:10;;;;;;;;;;;24.20;39.60;;;;;;1509906;79;706;-67
2022/03/09 06:31:12;;;;;;;;;;;24.20;39.60;;;;;;1509991;79;770;-69
2022/03/09 06:33:14;;;;;;;;;;;24.20;39.50;;;;;;1510143;78;1141;-68
2022/03/09 06:35:16;;;;;;;;;;;24.10;39.40;;;;;;1511260;77;714;-68
2022/03/09 06:37:17;;;;;;;;;;;24.00;39.30;;;;;;1509776;79;728;-66
2022/03/09 06:39:20;;;;;;;;;;;24.00;39.40;;;;;;1509934;79;802;-69
2022/03/09 06:41:22;;;;;;;;;;;24.00;39.30;;;;;;1510019;79;756;-69
2022/03/09 06:43:24;;;;;;;;;;;24.00;39.30;;;;;;1513296;77;1957;-68
2022/03/09 06:45:29;;;;;;;;;;;24.00;39.30;;;;;;1516831;77;726;-69
2022/03/09 06:47:32;;;;;;;;;;;24.00;39.20;;;;;;1509874;79;752;-69
2022/03/09 06:49:34;;;;;;;;;;;23.90;38.70;;;;;;1508415;77;778;-69
2022/03/09 06:51:36;;;;;;;;;;;23.90;38.20;;;;;;1505371;79;740;-67
2022/03/09 06:53:38;;;;;;;;;;;23.80;37.40;;;;;;1519337;77;1183;-70
2022/03/09 06:55:40;;;;;;;;;;;23.70;36.80;;;;;;1510379;79;947;-69
2022/03/09 06:57:42;;;;;;;;;;;23.70;36.50;;;;;;1498348;79;730;-68
2022/03/09 06:59:44;;;;;;;;;;;23.60;35.90;;;;;;1486150;80;708;-68
2022/03/09 07:01:46;;;;;;;;;;;23.60;35.50;;;;;;1489067;79;720;-68
2022/03/09 07:03:48;;;;;;;;;;;23.50;35.00;;;;;;1524065;75;3016;-68
2022/03/09 07:05:50;;;;;;;;;;;23.50;34.60;;;;;;1547123;77;733;-68
2022/03/09 07:07:51;;;;;;;;;;;23.50;34.50;;;;;;1547201;77;785;-69
2022/03/09 07:09:53;;;;;;;;;;;23.30;34.10;;;;;;1549165;75;653;-68
2022/03/09 07:11:57;;;;;;;;;;;23.40;33.80;;;;;;1568859;76;716;-68
2022/03/09 07:13:59;;;;;;;;;;;23.30;33.70;;;;;;1566464;76;1216;-67
2022/03/09 07:16:00;;;;;;;;;;;23.30;33.80;;;;;;1551392;75;804;-67
2022/03/09 07:18:02;;;;;;;;;;;23.20;32.80;;;;;;1543376;75;830;-68
2022/03/09 07:20:05;;;;;;;;;;;23.20;33.10;;;;;;1543314;75;767;-67
2022/03/09 07:22:07;;;;;;;;;;;23.10;32.90;;;;;;1543251;75;1935;-67
2022/03/09 07:24:09;;;;;;;;;;;23.10;33.00;;;;;;1548457;76;1148;-68
2022/03/09 07:26:10;;;;;;;;;;;23.10;33.30;;;;;;1551570;76;716;-68
2022/03/09 07:28:12;;;;;;;;;;;23.00;33.10;;;;;;1554296;76;940;-68
2022/03/09 07:30:14;;;;;;;;;;;23.10;32.80;;;;;;1552326;76;1126;-69
2022/03/09 07:32:16;;;;;;;;;;;23.00;32.90;;;;;;1544035;77;644;-68
2022/03/09 07:34:18;;;;;;;;;;;22.90;32.90;;;;;;1543771;76;1142;-67
2022/03/09 07:36:20;;;;;;;;;;;22.90;32.60;;;;;;1543313;76;830;-68
2022/03/09 07:38:22;;;;;;;;;;;22.80;31.90;;;;;;1542543;77;786;-67
2022/03/09 07:40:24;;;;;;;;;;;22.90;32.60;;;;;;1528997;75;720;-67
2022/03/09 07:42:26;;;;;;;;;;;22.80;32.30;;;;;;1543718;75;1929;-67
2022/03/09 07:44:28;;;;;;;;;;;22.80;31.80;;;;;;1543342;76;1158;-68
2022/03/09 07:46:30;;;;;;;;;;;22.80;31.90;;;;;;1543984;77;781;-67
2022/03/09 07:48:32;;;;;;;;;;;22.70;32.00;;;;;;1544114;77;733;-68
2022/03/09 07:50:34;;;;;;;;;;;22.60;32.10;;;;;;1549685;76;727;-66
2022/03/09 07:52:36;;;;;;;;;;;22.70;31.70;;;;;;1544012;76;711;-68
2022/03/09 07:54:38;;;;;;;;;;;22.60;31.50;;;;;;1543423;76;1132;-68
2022/03/09 07:56:40;;;;;;;;;;;22.60;31.30;;;;;;1543519;77;778;-68
2022/03/09 07:58:42;;;;;;;;;;;22.50;31.30;;;;;;1518181;78;798;-68
2022/03/09 08:00:43;;;;;;;;;;;22.50;30.90;;;;;;1518281;78;702;-68
2022/03/09 08:02:45;;;;;;;;;;;22.50;30.90;;;;;;1518173;78;1929;-68
2022/03/09 08:04:47;;;;;;;;;;;22.50;31.00;;;;;;1533452;76;1128;-67
2022/03/09 08:06:49;;;;;;;;;;;22.50;30.60;;;;;;1543605;77;772;-68
2022/03/09 08:08:51;;;;;;;;;;;22.50;31.20;;;;;;1543390;77;741;-68
2022/03/09 08:10:53;;;;;;;;;;;22.50;30.80;;;;;;1543201;75;720;-67
2022/03/09 08:12:55;;;;;;;;;;;22.50;30.50;;;;;;1541372;76;1189;-70
2022/03/09 08:14:57;;;;;;;;;;;22.40;30.60;;;;;;1543271;77;738;-67
2022/03/09 08:16:59;;;;;;;;;;;22.40;30.50;;;;;;1543489;77;806;-67
2022/03/09 08:19:01;;;;;;;;;;;22.50;29.90;;;;;;1543442;77;749;-67
2022/03/09 08:21:02;;;;;;;;;;;22.40;30.10;;;;;;1543615;77;697;-67
2022/03/09 08:23:06;;;;;;;;;;;22.50;30.20;;;;;;1543466;76;1929;-67
2022/03/09 08:25:08;;;;;;;;;;;22.50;29.90;;;;;;1543742;76;654;-67
2022/03/09 08:27:10;;;;;;;;;;;22.50;30.20;;;;;;1544025;76;820;-68
2022/03/09 08:29:12;;;;;;;;;;;22.50;29.70;;;;;;1543980;77;787;-68
2022/03/09 08:31:14;;;;;;;;;;;22.40;28.90;;;;;;1540107;75;702;-67
2022/03/09 08:33:15;;;;;;;;;;;22.50;29.60;;;;;;1543731;75;1126;-67
2022/03/09 08:35:17;;;;;;;;;;;22.50;29.50;;;;;;1543292;75;795;-67
2022/03/09 08:37:19;;;;;;;;;;;22.50;29.60;;;;;;1543515;75;684;-67
2022/03/09 08:39:21;;;;;;;;;;;22.50;28.80;;;;;;1543819;75;766;-68
2022/03/09 08:41:29;;;;;;;;;;;22.50;28.50;;;;;;1546820;75;762;-69
2022/03/09 08:43:27;;;;;;;;;;;22.50;28.90;;;;;;1544360;75;1931;-67
2022/03/09 08:45:29;;;;;;;;;;;22.50;28.50;;;;;;1543491;75;767;-68
2022/03/09 08:47:30;;;;;;;;;;;22.40;28.40;;;;;;1543543;76;663;-68
2022/03/09 08:49:33;;;;;;;;;;;22.40;28.20;;;;;;1543183;75;720;-67
2022/03/09 08:51:36;;;;;;;;;;;22.50;28.40;;;;;;1543851;76;720;-67
2022/03/09 08:53:38;;;;;;;;;;;22.50;28.00;;;;;;1543891;76;1179;-67
2022/03/09 08:55:40;;;;;;;;;;;22.40;28.10;;;;;;1544154;76;768;-68
2022/03/09 08:57:42;;;;;;;;;;;22.40;27.80;;;;;;1530971;77;720;-68
2022/03/09 08:59:45;;;;;;;;;;;22.40;27.30;;;;;;1518250;78;720;-68
2022/03/09 09:01:46;;;;;;;;;;;22.30;27.60;;;;;;1518086;78;721;-69
2022/03/09 09:03:48;;;;;;;;;;;22.40;27.70;;;;;;1526799;76;1936;-70
2022/03/09 09:05:52;;;;;;;;;;;22.30;27.60;;;;;;1543525;77;802;-67
2022/03/09 09:07:54;;;;;;;;;;;22.30;26.90;;;;;;1543419;75;724;-67
2022/03/09 09:09:56;;;;;;;;;;;22.30;27.80;;;;;;1546923;75;785;-67
2022/03/09 09:11:59;;;;;;;;;;;22.30;27.40;;;;;;1543534;75;786;-66
2022/03/09 09:14:01;;;;;;;;;;;22.30;27.10;;;;;;1548727;76;1186;-68
2022/03/09 09:16:03;;;;;;;;;;;22.40;26.80;;;;;;1543950;77;814;-66
2022/03/09 09:18:05;;;;;;;;;;;22.30;27.10;;;;;;1543911;75;752;-66
2022/03/09 09:20:08;;;;;;;;;;;22.30;27.70;;;;;;1543490;75;683;-67
2022/03/09 09:22:10;;;;;;;;;;;22.30;27.80;;;;;;1542247;75;720;-67
2022/03/09 09:24:12;;;;;;;;;;;22.30;27.90;;;;;;1543844;76;1936;-70
2022/03/09 09:26:18;;;;;;;;;;;22.30;28.10;;;;;;1543972;76;786;-67
2022/03/09 09:28:20;;;;;;;;;;;22.40;28.10;;;;;;1540376;75;653;-68
2022/03/09 09:30:22;;;;;;;;;;;22.30;28.10;;;;;;1543650;76;680;-66
2022/03/09 09:32:24;;;;;;;;;;;22.40;27.80;;;;;;1543975;77;711;-67
2022/03/09 09:34:26;;;;;;;;;;;22.40;28.10;;;;;;1543557;77;1159;-67
2022/03/09 09:36:28;;;;;;;;;;;22.50;27.70;;;;;;1544044;76;720;-67
2022/03/09 09:38:30;;;;;;;;;;;22.40;27.70;;;;;;1544044;76;794;-66
2022/03/09 09:40:34;;;;;;;;;;;22.40;27.30;;;;;;1543871;76;724;-66
2022/03/09 09:42:36;;;;;;;;;;;22.40;27.60;;;;;;1543662;75;712;-66
2022/03/09 09:44:38;;;;;;;;;;;22.40;27.20;;;;;;1543061;76;1898;-66
2022/03/09 09:46:40;;;;;;;;;;;22.40;27.50;;;;;;1543931;77;728;-66
2022/03/09 09:48:43;;;;;;;;;;;22.40;27.60;;;;;;1543893;75;656;-66
2022/03/09 09:50:45;;;;;;;;;;;22.40;27.40;;;;;;1548834;75;1002;-67
2022/03/09 09:52:47;;;;;;;;;;;22.30;27.00;;;;;;1548465;76;729;-66
2022/03/09 09:54:49;;;;;;;;;;;22.40;27.20;;;;;;1544017;76;1137;-67
2022/03/09 09:56:51;;;;;;;;;;;22.40;27.50;;;;;;1541887;77;724;-66
2022/03/09 09:58:53;;;;;;;;;;;22.40;27.60;;;;;;1518272;78;709;-65
2022/03/09 10:00:55;;;;;;;;;;;22.40;27.30;;;;;;1518208;78;737;-67
2022/03/09 10:02:58;;;;;;;;;;;22.30;26.60;;;;;;1533942;76;1119;-67
2022/03/09 10:05:00;;;;;;;;;;;22.30;26.30;;;;;;1545491;75;804;-67
2022/03/09 10:07:02;;;;;;;;;;;22.30;26.10;;;;;;1547030;76;701;-65
2022/03/09 10:09:07;;;;;;;;;;;22.30;26.80;;;;;;1544067;77;717;-67
2022/03/09 10:11:09;;;;;;;;;;;22.30;26.80;;;;;;1544011;75;759;-67
2022/03/09 10:13:12;;;;;;;;;;;22.30;26.30;;;;;;1543862;77;1119;-68
2022/03/09 10:15:16;;;;;;;;;;;22.30;26.10;;;;;;1543964;77;743;-66
2022/03/09 10:17:22;;;;;;;;;;;22.30;25.50;;;;;;1543854;77;684;-66
2022/03/09 10:19:31;;;;;;;;;;;22.20;25.40;;;;;;1543266;75;823;-71
2022/03/09 10:21:39;;;;;;;;;;;22.20;26.20;;;;;;1545738;75;743;-70
2022/03/09 10:23:53;;;;;;;;;;;22.20;26.00;;;;;;1542844;75;1931;-71
2022/03/09 10:25:59;;;;;;;;;;;22.20;25.30;;;;;;1539544;75;689;-70
2022/03/09 10:28:03;;;;;;;;;;;22.20;24.80;;;;;;1542802;75;1047;-70
2022/03/09 10:30:06;;;;;;;;;;;22.10;24.20;;;;;;1542353;75;2026;-69
2022/03/09 10:32:08;;;;;;;;;;;22.00;23.60;;;;;;1543745;75;708;-69
2022/03/09 10:34:10;;;;;;;;;;;22.00;23.80;;;;;;1544307;75;1151;-69
2022/03/09 10:36:14;;;;;;;;;;;22.00;24.20;;;;;;1544232;75;748;-74
2022/03/09 10:38:19;;;;;;;;;;;21.90;24.70;;;;;;1544413;75;946;-70
2022/03/09 10:40:21;;;;;;;;;;;21.90;24.70;;;;;;1545478;75;701;-70
2022/03/09 10:42:24;;;;;;;;;;;22.00;25.30;;;;;;1544665;75;638;-70
2022/03/09 10:44:42;;;;;;;;;;;22.00;25.30;;;;;;1543741;76;1956;-69
2022/03/09 10:46:45;;;;;;;;;;;21.90;24.30;;;;;;1518306;78;747;-69
2022/03/09 10:48:56;;;;;;;;;;;22.00;24.50;;;;;;1518210;78;710;-72
2022/03/09 10:50:58;;;;;;;;;;;21.90;24.40;;;;;;1539050;77;2065;-69
2022/03/09 10:53:01;;;;;;;;;;;21.90;23.80;;;;;;1542645;76;1092;-70
2022/03/09 10:55:21;;;;;;;;;;;21.90;23.40;;;;;;1543439;76;645;-69
2022/03/09 10:57:24;;;;;;;;;;;21.90;24.40;;;;;;1535198;77;669;-69
2022/03/09 10:59:26;;;;;;;;;;;21.80;23.70;;;;;;1517359;78;1155;-69
2022/03/09 11:01:29;;;;;;;;;;;21.80;23.60;;;;;;1518146;78;669;-69
2022/03/09 11:03:33;;;;;;;;;;;21.70;23.10;;;;;;1525969;76;1928;-69
2022/03/09 11:05:35;;;;;;;;;;;21.70;23.10;;;;;;1543540;77;1112;-69
2022/03/09 11:07:37;;;;;;;;;;;21.70;22.70;;;;;;1543566;77;692;-69
2022/03/09 11:09:39;;;;;;;;;;;21.60;22.60;;;;;;1543579;77;733;-69
2022/03/09 11:11:42;;;;;;;;;;;21.60;22.40;;;;;;1542712;76;692;-69
2022/03/09 11:13:44;;;;;;;;;;;21.50;22.40;;;;;;1543479;77;1160;-70
2022/03/09 11:15:47;;;;;;;;;;;21.50;23.00;;;;;;1543410;77;701;-69
2022/03/09 11:17:49;;;;;;;;;;;21.50;22.80;;;;;;1543541;77;773;-70
2022/03/09 11:19:51;;;;;;;;;;;21.50;22.10;;;;;;1543619;77;733;-65
2022/03/09 11:21:53;;;;;;;;;;;21.50;23.10;;;;;;1543384;76;716;-66
2022/03/09 11:23:55;;;;;;;;;;;21.50;24.30;;;;;;1543547;76;1948;-67
2022/03/09 11:26:08;;;;;;;;;;;21.50;25.00;;;;;;1544029;76;780;-68
2022/03/09 11:28:10;;;;;;;;;;;21.60;25.50;;;;;;1543837;77;763;-70
2022/03/09 11:30:25;;;;;;;;;;;21.70;26.10;;;;;;1543941;77;693;-69
2022/03/09 11:32:34;;;;;;;;;;;21.80;26.40;;;;;;1543849;76;732;-67
2022/03/09 11:34:45;;;;;;;;;;;21.90;29.10;;;;;;1544002;77;1120;-66
2022/03/09 11:36:49;;;;;;;;;;;21.90;29.20;;;;;;1544070;77;708;-67
2022/03/09 11:38:56;;;;;;;;;;;21.90;29.70;;;;;;1542342;77;1082;-66
2022/03/09 11:40:59;;;;;;;;;;;21.90;30.00;;;;;;1542234;76;1175;-67
2022/03/09 11:43:03;;;;;;;;;;;21.90;30.20;;;;;;1533186;77;1243;-66
2022/03/09 11:45:29;;;;;;;;;;;22.00;30.00;;;;;;1538380;77;1933;-68
2022/03/09 11:47:25;;;;;;;;;;;22.00;30.10;;;;;;1540484;77;1593;-69
2022/03/09 11:49:49;;;;;;;;;;;22.10;30.40;;;;;;1544684;76;759;-71
2022/03/09 11:52:07;;;;;;;;;;;22.10;30.40;;;;;;1551686;76;1157;-65
2022/03/09 11:54:09;;;;;;;;;;;22.20;28.90;;;;;;1481262;78;1155;-66
2022/03/09 11:56:30;;;;;;;;;;;22.30;29.20;;;;;;1478202;79;986;-65
2022/03/09 11:58:32;;;;;;;;;;;22.30;29.40;;;;;;1543781;77;740;-66
2022/03/09 12:00:35;;;;;;;;;;;22.30;29.60;;;;;;1544047;76;626;-67
2022/03/09 12:02:40;;;;;;;;;;;22.30;29.70;;;;;;1543965;76;799;-66
2022/03/09 12:04:45;;;;;;;;;;;22.40;29.80;;;;;;1543746;77;1927;-67
2022/03/09 12:06:47;;;;;;;;;;;22.40;29.90;;;;;;1543992;77;895;-66
2022/03/09 12:08:49;;;;;;;;;;;22.40;29.80;;;;;;1544138;76;949;-68
2022/03/09 12:10:52;;;;;;;;;;;22.50;30.00;;;;;;1544726;75;654;-70
2022/03/09 12:13:13;;;;;;;;;;;22.60;29.90;;;;;;1543512;77;1123;-68